sensor_id;sensor_type;location;lat;lon;timestamp;temperature;humidity
3626;DHT22;1827;50.534;8.316;2024-02-28T00:02:23;-0.20;58.50
3626;DHT22;1827;50.534;8.316;2024-02-28T00:04:49;-0.30;76.50
3626;DHT22;1827;50.534;8.316;2024-02-28T00:07:15;-0.20;99.90
3626;DHT22;1827;50.534;8.316;2024-02-28T00:09:40;-0.20;99.90
3626;DHT22;1827;50.534;8.316;2024-02-28T00:12:07;-0.20;99.90
3626;DHT22;1827;50.534;8.316;2024-02-28T00:14:33;-0.20;99.90
3626;DHT22;1827;50.534;8.316;2024-02-28T00:16:59;-0.30;99.90
3626;DHT22;1827;50.534;8.316;2024-02-28T00:19:24;-0.40;99.90
3626;DHT22;1827;50.534;8.316;2024-02-28T00:21:50;-0.40;99.90
3626;DHT22;1827;50.534;8.316;2024-02-28T00:24:16;-0.50;99.90
3626;DHT22;1827;50.534;8.316;2024-02-28T00:26:43;-0.50;99.90
3626;DHT22;1827;50.534;8.316;2024-02-28T00:29:09;-0.50;99.90
3626;DHT22;1827;50.534;8.316;2024-02-28T00:31:35;-0.60;99.90
3626;DHT22;1827;50.534;8.316;2024-02-28T00:34:00;-0.60;99.90
3626;DHT22;1827;50.534;8.316;2024-02-28T00:36:26;-0.70;99.90
3626;DHT22;1827;50.534;8.316;2024-02-28T00:38:52;-0.70;99.90
3626;DHT22;1827;50.534;8.316;2024-02-28T00:41:17;-0.70;99.90
3626;DHT22;1827;50.534;8.316;2024-02-28T00:43:43;-0.70;99.90
3626;DHT22;1827;50.534;8.316;2024-02-28T00:46:08;-0.70;99.90
3626;DHT22;1827;50.534;8.316;2024-02-28T00:48:40;-0.80;99.90
3626;DHT22;1827;50.534;8.316;2024-02-28T00:51:05;-0.80;99.90
3626;DHT22;1827;50.534;8.316;2024-02-28T00:53:31;-0.80;99.90
3626;DHT22;1827;50.534;8.316;2024-02-28T00:55:57;-0.80;99.90
3626;DHT22;1827;50.534;8.316;2024-02-28T00:58:23;-0.90;99.90
3626;DHT22;1827;50.534;8.316;2024-02-28T01:00:48;-0.80;99.90
3626;DHT22;1827;50.534;8.316;2024-02-28T01:03:14;-0.80;99.90
3626;DHT22;1827;50.534;8.316;2024-02-28T01:05:41;-0.80;99.90
3626;DHT22;1827;50.534;8.316;2024-02-28T01:08:06;-0.80;99.90
3626;DHT22;1827;50.534;8.316;2024-02-28T01:10:33;-0.80;99.90
3626;DHT22;1827;50.534;8.316;2024-02-28T01:12:58;-0.90;99.90
3626;DHT22;1827;50.534;8.316;2024-02-28T01:15:25;-0.90;99.90
3626;DHT22;1827;50.534;8.316;2024-02-28T01:17:50;-1.00;99.90
3626;DHT22;1827;50.534;8.316;2024-02-28T01:20:16;-1.10;99.90
3626;DHT22;1827;50.534;8.316;2024-02-28T01:22:41;-1.10;99.90
3626;DHT22;1827;50.534;8.316;2024-02-28T01:25:07;-1.00;99.90
3626;DHT22;1827;50.534;8.316;2024-02-28T01:27:33;-1.10;99.90
3626;DHT22;1827;50.534;8.316;2024-02-28T01:29:59;-1.20;99.90
3626;DHT22;1827;50.534;8.316;2024-02-28T01:32:24;-1.10;1.00
3626;DHT22;1827;50.534;8.316;2024-02-28T01:34:50;-1.20;1.00
3626;DHT22;1827;50.534;8.316;2024-02-28T01:37:15;-1.30;1.00
3626;DHT22;1827;50.534;8.316;2024-02-28T01:39:41;-1.30;1.00
3626;DHT22;1827;50.534;8.316;2024-02-28T01:42:07;-1.30;1.00
3626;DHT22;1827;50.534;8.316;2024-02-28T01:44:33;-1.30;1.00
3626;DHT22;1827;50.534;8.316;2024-02-28T01:47:02;-1.20;1.00
3626;DHT22;1827;50.534;8.316;2024-02-28T01:49:28;-1.30;1.00
3626;DHT22;1827;50.534;8.316;2024-02-28T01:51:54;-1.30;1.00
3626;DHT22;1827;50.534;8.316;2024-02-28T01:54:21;-1.40;1.00
3626;DHT22;1827;50.534;8.316;2024-02-28T01:56:48;-1.30;1.00
3626;DHT22;1827;50.534;8.316;2024-02-28T01:59:13;-1.40;1.00
3626;DHT22;1827;50.534;8.316;2024-02-28T02:01:40;-1.40;1.00
3626;DHT22;1827;50.534;8.316;2024-02-28T02:04:06;-1.50;1.00
3626;DHT22;1827;50.534;8.316;2024-02-28T02:06:32;-1.50;1.00
3626;DHT22;1827;50.534;8.316;2024-02-28T02:08:58;-1.50;1.00
3626;DHT22;1827;50.534;8.316;2024-02-28T02:11:24;-1.50;1.00
3626;DHT22;1827;50.534;8.316;2024-02-28T02:13:50;-1.50;1.00
3626;DHT22;1827;50.534;8.316;2024-02-28T02:16:16;-1.50;1.00
3626;DHT22;1827;50.534;8.316;2024-02-28T02:18:42;-1.50;1.00
3626;DHT22;1827;50.534;8.316;2024-02-28T02:21:08;-1.50;1.00
3626;DHT22;1827;50.534;8.316;2024-02-28T02:23:34;-1.50;1.00
3626;DHT22;1827;50.534;8.316;2024-02-28T02:26:01;-1.60;1.00
3626;DHT22;1827;50.534;8.316;2024-02-28T02:28:26;-1.60;1.00
3626;DHT22;1827;50.534;8.316;2024-02-28T02:30:52;-1.40;1.00
3626;DHT22;1827;50.534;8.316;2024-02-28T02:33:17;-1.30;1.00
3626;DHT22;1827;50.534;8.316;2024-02-28T02:35:44;-1.20;1.00
3626;DHT22;1827;50.534;8.316;2024-02-28T02:38:10;-1.00;1.00
3626;DHT22;1827;50.534;8.316;2024-02-28T02:40:35;-1.00;18.30
3626;DHT22;1827;50.534;8.316;2024-02-28T02:43:01;-0.80;99.90
3626;DHT22;1827;50.534;8.316;2024-02-28T02:45:26;-0.70;99.90
3626;DHT22;1827;50.534;8.316;2024-02-28T02:47:52;-0.60;99.90
3626;DHT22;1827;50.534;8.316;2024-02-28T02:50:18;-0.50;99.90
3626;DHT22;1827;50.534;8.316;2024-02-28T02:52:43;-0.40;99.90
3626;DHT22;1827;50.534;8.316;2024-02-28T02:55:09;-0.50;99.90
3626;DHT22;1827;50.534;8.316;2024-02-28T02:57:35;-0.50;99.90
3626;DHT22;1827;50.534;8.316;2024-02-28T03:00:01;-0.40;1.00
3626;DHT22;1827;50.534;8.316;2024-02-28T03:02:26;-0.30;1.00
3626;DHT22;1827;50.534;8.316;2024-02-28T03:04:52;-0.20;1.00
3626;DHT22;1827;50.534;8.316;2024-02-28T03:07:17;-0.20;1.00
3626;DHT22;1827;50.534;8.316;2024-02-28T03:09:43;-0.30;1.00
3626;DHT22;1827;50.534;8.316;2024-02-28T03:12:09;-0.20;1.00
3626;DHT22;1827;50.534;8.316;2024-02-28T03:14:34;-0.10;1.00
3626;DHT22;1827;50.534;8.316;2024-02-28T03:17:00;0.00;1.00
3626;DHT22;1827;50.534;8.316;2024-02-28T03:19:26;0.10;1.00
3626;DHT22;1827;50.534;8.316;2024-02-28T03:21:51;0.20;1.00
3626;DHT22;1827;50.534;8.316;2024-02-28T03:24:17;0.30;1.00
3626;DHT22;1827;50.534;8.316;2024-02-28T03:26:42;0.10;1.00
3626;DHT22;1827;50.534;8.316;2024-02-28T03:29:08;0.10;25.90
3626;DHT22;1827;50.534;8.316;2024-02-28T03:31:34;0.10;99.90
3626;DHT22;1827;50.534;8.316;2024-02-28T03:34:00;0.00;99.90
3626;DHT22;1827;50.534;8.316;2024-02-28T03:36:25;0.00;99.90
3626;DHT22;1827;50.534;8.316;2024-02-28T03:38:51;0.00;99.90
3626;DHT22;1827;50.534;8.316;2024-02-28T03:41:16;0.00;99.90
3626;DHT22;1827;50.534;8.316;2024-02-28T03:43:42;0.00;99.90
3626;DHT22;1827;50.534;8.316;2024-02-28T03:46:07;0.00;1.00
3626;DHT22;1827;50.534;8.316;2024-02-28T03:48:33;0.10;1.00
3626;DHT22;1827;50.534;8.316;2024-02-28T03:50:59;0.20;1.00
3626;DHT22;1827;50.534;8.316;2024-02-28T03:53:24;0.30;1.00
3626;DHT22;1827;50.534;8.316;2024-02-28T03:55:50;0.30;1.00
3626;DHT22;1827;50.534;8.316;2024-02-28T03:58:16;0.20;1.00
3626;DHT22;1827;50.534;8.316;2024-02-28T04:00:41;0.20;1.00
3626;DHT22;1827;50.534;8.316;2024-02-28T04:03:09;0.40;99.90
3626;DHT22;1827;50.534;8.316;2024-02-28T04:05:35;0.40;99.90
3626;DHT22;1827;50.534;8.316;2024-02-28T04:08:01;0.30;99.90
3626;DHT22;1827;50.534;8.316;2024-02-28T04:10:26;0.30;99.90
3626;DHT22;1827;50.534;8.316;2024-02-28T04:12:52;0.20;99.90
3626;DHT22;1827;50.534;8.316;2024-02-28T04:15:17;0.30;1.00
3626;DHT22;1827;50.534;8.316;2024-02-28T04:17:43;0.30;1.00
3626;DHT22;1827;50.534;8.316;2024-02-28T04:20:12;0.30;1.00
3626;DHT22;1827;50.534;8.316;2024-02-28T04:22:38;0.40;1.00
3626;DHT22;1827;50.534;8.316;2024-02-28T04:25:07;0.40;1.00
3626;DHT22;1827;50.534;8.316;2024-02-28T04:27:33;0.40;1.00
3626;DHT22;1827;50.534;8.316;2024-02-28T04:29:59;0.40;99.90
3626;DHT22;1827;50.534;8.316;2024-02-28T04:32:24;0.40;99.90
3626;DHT22;1827;50.534;8.316;2024-02-28T04:34:50;0.40;1.00
3626;DHT22;1827;50.534;8.316;2024-02-28T04:37:15;0.50;1.00
3626;DHT22;1827;50.534;8.316;2024-02-28T04:39:41;0.50;1.00
3626;DHT22;1827;50.534;8.316;2024-02-28T04:42:07;0.70;1.00
3626;DHT22;1827;50.534;8.316;2024-02-28T04:44:33;0.60;1.00
3626;DHT22;1827;50.534;8.316;2024-02-28T04:46:58;0.60;16.00
3626;DHT22;1827;50.534;8.316;2024-02-28T04:49:24;0.50;42.80
3626;DHT22;1827;50.534;8.316;2024-02-28T04:51:49;0.50;99.90
3626;DHT22;1827;50.534;8.316;2024-02-28T04:54:15;0.60;99.90
3626;DHT22;1827;50.534;8.316;2024-02-28T04:56:41;0.70;1.00
3626;DHT22;1827;50.534;8.316;2024-02-28T04:59:07;0.60;1.00
3626;DHT22;1827;50.534;8.316;2024-02-28T05:01:33;0.50;1.00
3626;DHT22;1827;50.534;8.316;2024-02-28T05:04:00;0.60;1.00
3626;DHT22;1827;50.534;8.316;2024-02-28T05:06:26;0.60;1.00
3626;DHT22;1827;50.534;8.316;2024-02-28T05:08:51;0.70;1.00
3626;DHT22;1827;50.534;8.316;2024-02-28T05:11:17;0.60;1.00
3626;DHT22;1827;50.534;8.316;2024-02-28T05:13:42;0.50;1.00
3626;DHT22;1827;50.534;8.316;2024-02-28T05:16:14;0.50;1.00
3626;DHT22;1827;50.534;8.316;2024-02-28T05:18:40;0.50;1.00
3626;DHT22;1827;50.534;8.316;2024-02-28T05:21:06;0.40;12.50
3626;DHT22;1827;50.534;8.316;2024-02-28T05:23:31;0.50;99.90
3626;DHT22;1827;50.534;8.316;2024-02-28T05:25:57;0.50;99.90
3626;DHT22;1827;50.534;8.316;2024-02-28T05:28:23;0.70;1.00
3626;DHT22;1827;50.534;8.316;2024-02-28T05:30:49;0.60;1.00
3626;DHT22;1827;50.534;8.316;2024-02-28T05:33:15;0.60;1.00
3626;DHT22;1827;50.534;8.316;2024-02-28T05:35:40;0.60;1.00
3626;DHT22;1827;50.534;8.316;2024-02-28T05:38:06;0.70;1.00
3626;DHT22;1827;50.534;8.316;2024-02-28T05:40:31;0.60;1.00
3626;DHT22;1827;50.534;8.316;2024-02-28T05:42:57;0.60;1.00
3626;DHT22;1827;50.534;8.316;2024-02-28T05:45:22;0.60;1.00
3626;DHT22;1827;50.534;8.316;2024-02-28T05:47:48;0.60;39.40
3626;DHT22;1827;50.534;8.316;2024-02-28T05:50:14;0.60;99.90
3626;DHT22;1827;50.534;8.316;2024-02-28T05:52:42;0.60;99.90
3626;DHT22;1827;50.534;8.316;2024-02-28T05:55:08;0.50;99.90
3626;DHT22;1827;50.534;8.316;2024-02-28T05:57:34;0.50;99.90
3626;DHT22;1827;50.534;8.316;2024-02-28T05:59:59;0.60;99.90
3626;DHT22;1827;50.534;8.316;2024-02-28T06:02:25;0.50;99.90
3626;DHT22;1827;50.534;8.316;2024-02-28T06:04:50;0.40;99.90
3626;DHT22;1827;50.534;8.316;2024-02-28T06:07:16;0.50;1.00
3626;DHT22;1827;50.534;8.316;2024-02-28T06:09:41;0.40;1.00
3626;DHT22;1827;50.534;8.316;2024-02-28T06:12:07;0.50;1.00
3626;DHT22;1827;50.534;8.316;2024-02-28T06:14:33;0.40;1.00
3626;DHT22;1827;50.534;8.316;2024-02-28T06:16:58;0.40;1.00
3626;DHT22;1827;50.534;8.316;2024-02-28T06:19:24;0.30;1.00
3626;DHT22;1827;50.534;8.316;2024-02-28T06:21:49;0.40;1.00
3626;DHT22;1827;50.534;8.316;2024-02-28T06:24:15;0.40;1.00
3626;DHT22;1827;50.534;8.316;2024-02-28T06:26:41;0.40;16.80
3626;DHT22;1827;50.534;8.316;2024-02-28T06:29:08;0.40;99.90
3626;DHT22;1827;50.534;8.316;2024-02-28T06:31:34;0.30;99.90
3626;DHT22;1827;50.534;8.316;2024-02-28T06:33:59;0.40;99.90
3626;DHT22;1827;50.534;8.316;2024-02-28T06:36:25;0.40;1.00
3626;DHT22;1827;50.534;8.316;2024-02-28T06:38:52;0.50;1.00
3626;DHT22;1827;50.534;8.316;2024-02-28T06:41:19;0.50;1.00
3626;DHT22;1827;50.534;8.316;2024-02-28T06:43:44;0.50;66.20
3626;DHT22;1827;50.534;8.316;2024-02-28T06:46:11;0.60;99.90
3626;DHT22;1827;50.534;8.316;2024-02-28T06:48:36;0.50;99.90
3626;DHT22;1827;50.534;8.316;2024-02-28T06:51:02;0.60;1.00
3626;DHT22;1827;50.534;8.316;2024-02-28T06:53:28;0.80;1.00
3626;DHT22;1827;50.534;8.316;2024-02-28T06:55:54;0.80;1.00
3626;DHT22;1827;50.534;8.316;2024-02-28T06:58:19;0.90;99.90
3626;DHT22;1827;50.534;8.316;2024-02-28T07:00:45;0.90;99.90
3626;DHT22;1827;50.534;8.316;2024-02-28T07:03:11;0.90;99.90
3626;DHT22;1827;50.534;8.316;2024-02-28T07:05:36;0.90;99.90
3626;DHT22;1827;50.534;8.316;2024-02-28T07:08:02;0.90;99.90
3626;DHT22;1827;50.534;8.316;2024-02-28T07:10:28;0.80;99.90
3626;DHT22;1827;50.534;8.316;2024-02-28T07:12:54;0.90;99.90
3626;DHT22;1827;50.534;8.316;2024-02-28T07:15:20;0.90;99.90
3626;DHT22;1827;50.534;8.316;2024-02-28T07:17:47;0.90;99.90
3626;DHT22;1827;50.534;8.316;2024-02-28T07:20:12;1.00;1.00
3626;DHT22;1827;50.534;8.316;2024-02-28T07:22:38;0.90;99.90
3626;DHT22;1827;50.534;8.316;2024-02-28T07:25:04;0.90;1.00
3626;DHT22;1827;50.534;8.316;2024-02-28T07:27:30;1.00;1.00
3626;DHT22;1827;50.534;8.316;2024-02-28T07:29:56;1.00;1.00
3626;DHT22;1827;50.534;8.316;2024-02-28T07:32:22;1.10;1.00
3626;DHT22;1827;50.534;8.316;2024-02-28T07:34:48;1.10;1.00
3626;DHT22;1827;50.534;8.316;2024-02-28T07:37:14;1.20;1.00
3626;DHT22;1827;50.534;8.316;2024-02-28T07:39:40;1.20;1.00
3626;DHT22;1827;50.534;8.316;2024-02-28T07:42:05;1.20;1.00
3626;DHT22;1827;50.534;8.316;2024-02-28T07:44:31;1.30;1.00
3626;DHT22;1827;50.534;8.316;2024-02-28T07:46:57;1.20;1.00
3626;DHT22;1827;50.534;8.316;2024-02-28T07:49:23;1.20;1.00
3626;DHT22;1827;50.534;8.316;2024-02-28T07:51:49;1.30;1.00
3626;DHT22;1827;50.534;8.316;2024-02-28T07:54:15;1.40;1.00
3626;DHT22;1827;50.534;8.316;2024-02-28T07:56:41;1.50;1.00
3626;DHT22;1827;50.534;8.316;2024-02-28T07:59:06;1.50;1.00
3626;DHT22;1827;50.534;8.316;2024-02-28T08:01:32;1.50;1.00
3626;DHT22;1827;50.534;8.316;2024-02-28T08:03:57;1.70;1.00
3626;DHT22;1827;50.534;8.316;2024-02-28T08:06:23;1.60;1.00
3626;DHT22;1827;50.534;8.316;2024-02-28T08:08:49;1.70;1.00
3626;DHT22;1827;50.534;8.316;2024-02-28T08:11:14;1.70;1.00
3626;DHT22;1827;50.534;8.316;2024-02-28T08:13:40;1.80;1.00
3626;DHT22;1827;50.534;8.316;2024-02-28T08:16:06;1.80;1.00
3626;DHT22;1827;50.534;8.316;2024-02-28T08:18:34;1.90;1.00
3626;DHT22;1827;50.534;8.316;2024-02-28T08:21:00;1.80;1.00
3626;DHT22;1827;50.534;8.316;2024-02-28T08:23:27;1.80;1.00
3626;DHT22;1827;50.534;8.316;2024-02-28T08:25:53;1.90;1.00
3626;DHT22;1827;50.534;8.316;2024-02-28T08:28:19;1.90;1.00
3626;DHT22;1827;50.534;8.316;2024-02-28T08:30:45;1.80;1.00
3626;DHT22;1827;50.534;8.316;2024-02-28T08:33:11;2.00;1.00
3626;DHT22;1827;50.534;8.316;2024-02-28T08:35:36;2.00;1.00
3626;DHT22;1827;50.534;8.316;2024-02-28T08:38:02;1.90;99.90
3626;DHT22;1827;50.534;8.316;2024-02-28T08:40:32;1.90;99.90
3626;DHT22;1827;50.534;8.316;2024-02-28T08:42:58;2.00;99.90
3626;DHT22;1827;50.534;8.316;2024-02-28T08:45:23;2.10;99.90
3626;DHT22;1827;50.534;8.316;2024-02-28T08:47:49;2.30;99.90
3626;DHT22;1827;50.534;8.316;2024-02-28T08:50:15;2.30;1.00
3626;DHT22;1827;50.534;8.316;2024-02-28T08:52:41;2.40;1.00
3626;DHT22;1827;50.534;8.316;2024-02-28T08:55:07;2.40;99.90
3626;DHT22;1827;50.534;8.316;2024-02-28T08:57:32;2.30;1.00
3626;DHT22;1827;50.534;8.316;2024-02-28T08:59:59;2.20;99.90
3626;DHT22;1827;50.534;8.316;2024-02-28T09:02:25;2.40;99.90
3626;DHT22;1827;50.534;8.316;2024-02-28T09:04:50;2.40;1.00
3626;DHT22;1827;50.534;8.316;2024-02-28T09:07:18;2.30;99.90
3626;DHT22;1827;50.534;8.316;2024-02-28T09:09:46;2.40;99.90
3626;DHT22;1827;50.534;8.316;2024-02-28T09:12:12;2.50;99.90
3626;DHT22;1827;50.534;8.316;2024-02-28T09:14:38;2.60;1.00
3626;DHT22;1827;50.534;8.316;2024-02-28T09:17:04;2.40;99.90
3626;DHT22;1827;50.534;8.316;2024-02-28T09:19:30;2.50;99.90
3626;DHT22;1827;50.534;8.316;2024-02-28T09:21:56;2.70;99.90
3626;DHT22;1827;50.534;8.316;2024-02-28T09:24:26;2.80;1.00
3626;DHT22;1827;50.534;8.316;2024-02-28T09:26:51;3.00;1.00
3626;DHT22;1827;50.534;8.316;2024-02-28T09:29:17;3.20;1.00
3626;DHT22;1827;50.534;8.316;2024-02-28T09:31:43;3.00;1.00
3626;DHT22;1827;50.534;8.316;2024-02-28T09:34:08;2.90;99.90
3626;DHT22;1827;50.534;8.316;2024-02-28T09:36:44;3.20;99.90
3626;DHT22;1827;50.534;8.316;2024-02-28T09:39:14;3.40;46.70
3626;DHT22;1827;50.534;8.316;2024-02-28T09:41:42;3.30;1.00
3626;DHT22;1827;50.534;8.316;2024-02-28T09:44:09;3.40;1.00
3626;DHT22;1827;50.534;8.316;2024-02-28T09:46:36;3.40;99.90
3626;DHT22;1827;50.534;8.316;2024-02-28T09:49:03;3.50;99.90
3626;DHT22;1827;50.534;8.316;2024-02-28T09:51:29;3.40;1.00
3626;DHT22;1827;50.534;8.316;2024-02-28T09:53:55;3.40;1.00
3626;DHT22;1827;50.534;8.316;2024-02-28T09:56:22;3.50;1.00
3626;DHT22;1827;50.534;8.316;2024-02-28T09:58:48;3.70;1.00
3626;DHT22;1827;50.534;8.316;2024-02-28T10:01:14;3.70;99.90
3626;DHT22;1827;50.534;8.316;2024-02-28T10:03:42;3.80;99.90
3626;DHT22;1827;50.534;8.316;2024-02-28T10:06:10;3.70;1.00
3626;DHT22;1827;50.534;8.316;2024-02-28T10:08:36;3.70;1.00
3626;DHT22;1827;50.534;8.316;2024-02-28T10:11:02;3.90;1.00
3626;DHT22;1827;50.534;8.316;2024-02-28T10:13:28;3.80;1.00
3626;DHT22;1827;50.534;8.316;2024-02-28T10:15:54;4.00;1.00
3626;DHT22;1827;50.534;8.316;2024-02-28T10:18:20;4.20;99.90
3626;DHT22;1827;50.534;8.316;2024-02-28T10:20:45;4.30;99.90
3626;DHT22;1827;50.534;8.316;2024-02-28T10:23:11;4.30;58.30
3626;DHT22;1827;50.534;8.316;2024-02-28T10:25:43;4.40;1.00
3626;DHT22;1827;50.534;8.316;2024-02-28T10:28:09;4.10;1.00
3626;DHT22;1827;50.534;8.316;2024-02-28T10:30:39;4.40;1.00
3626;DHT22;1827;50.534;8.316;2024-02-28T10:33:09;4.60;1.00
3626;DHT22;1827;50.534;8.316;2024-02-28T10:35:34;4.50;99.90
3626;DHT22;1827;50.534;8.316;2024-02-28T10:38:00;4.60;99.90
3626;DHT22;1827;50.534;8.316;2024-02-28T10:40:26;4.50;93.00
3626;DHT22;1827;50.534;8.316;2024-02-28T10:42:52;4.90;21.60
3626;DHT22;1827;50.534;8.316;2024-02-28T10:45:18;4.80;1.00
3626;DHT22;1827;50.534;8.316;2024-02-28T10:47:45;4.60;1.00
3626;DHT22;1827;50.534;8.316;2024-02-28T10:50:13;4.40;1.00
3626;DHT22;1827;50.534;8.316;2024-02-28T10:52:43;4.50;1.00
3626;DHT22;1827;50.534;8.316;2024-02-28T10:55:09;4.60;99.90
3626;DHT22;1827;50.534;8.316;2024-02-28T10:57:36;4.80;99.90
3626;DHT22;1827;50.534;8.316;2024-02-28T11:00:02;4.90;99.90
3626;DHT22;1827;50.534;8.316;2024-02-28T11:02:31;5.20;99.90
3626;DHT22;1827;50.534;8.316;2024-02-28T11:04:57;5.40;99.90
3626;DHT22;1827;50.534;8.316;2024-02-28T11:07:23;5.50;1.00
3626;DHT22;1827;50.534;8.316;2024-02-28T11:09:53;5.20;1.00
3626;DHT22;1827;50.534;8.316;2024-02-28T11:12:26;5.50;1.00
3626;DHT22;1827;50.534;8.316;2024-02-28T11:14:59;5.40;1.00
3626;DHT22;1827;50.534;8.316;2024-02-28T11:17:26;5.50;1.00
3626;DHT22;1827;50.534;8.316;2024-02-28T11:19:53;5.80;1.00
3626;DHT22;1827;50.534;8.316;2024-02-28T11:22:18;5.70;99.90
3626;DHT22;1827;50.534;8.316;2024-02-28T11:24:47;5.60;99.90
3626;DHT22;1827;50.534;8.316;2024-02-28T11:27:12;5.70;99.90
3626;DHT22;1827;50.534;8.316;2024-02-28T11:29:41;5.90;99.90
3626;DHT22;1827;50.534;8.316;2024-02-28T11:32:07;5.90;70.90
3626;DHT22;1827;50.534;8.316;2024-02-28T11:34:36;6.30;25.40
3626;DHT22;1827;50.534;8.316;2024-02-28T11:37:04;6.60;1.00
3626;DHT22;1827;50.534;8.316;2024-02-28T11:39:30;7.00;1.00
3626;DHT22;1827;50.534;8.316;2024-02-28T11:42:10;7.00;1.00
3626;DHT22;1827;50.534;8.316;2024-02-28T11:44:36;7.60;1.00
3626;DHT22;1827;50.534;8.316;2024-02-28T11:47:02;7.60;1.00
3626;DHT22;1827;50.534;8.316;2024-02-28T11:49:28;7.50;1.00
3626;DHT22;1827;50.534;8.316;2024-02-28T11:51:53;7.20;1.00
3626;DHT22;1827;50.534;8.316;2024-02-28T11:54:19;7.00;99.90
3626;DHT22;1827;50.534;8.316;2024-02-28T11:56:45;7.50;99.90
3626;DHT22;1827;50.534;8.316;2024-02-28T11:59:13;7.20;99.90
3626;DHT22;1827;50.534;8.316;2024-02-28T12:01:43;7.20;99.90
3626;DHT22;1827;50.534;8.316;2024-02-28T12:04:16;7.30;99.90
3626;DHT22;1827;50.534;8.316;2024-02-28T12:06:42;7.30;99.90
3626;DHT22;1827;50.534;8.316;2024-02-28T12:09:11;7.70;99.90
3626;DHT22;1827;50.534;8.316;2024-02-28T12:11:41;8.00;99.90
3626;DHT22;1827;50.534;8.316;2024-02-28T12:14:07;7.80;99.20
3626;DHT22;1827;50.534;8.316;2024-02-28T12:16:39;8.10;65.60
3626;DHT22;1827;50.534;8.316;2024-02-28T12:19:11;8.50;37.70
3626;DHT22;1827;50.534;8.316;2024-02-28T12:21:37;8.90;1.00
3626;DHT22;1827;50.534;8.316;2024-02-28T12:24:05;9.00;1.00
3626;DHT22;1827;50.534;8.316;2024-02-28T12:26:32;8.30;1.00
3626;DHT22;1827;50.534;8.316;2024-02-28T12:28:58;8.20;1.00
3626;DHT22;1827;50.534;8.316;2024-02-28T12:31:24;8.40;1.00
3626;DHT22;1827;50.534;8.316;2024-02-28T12:33:50;8.90;1.00
3626;DHT22;1827;50.534;8.316;2024-02-28T12:36:15;8.70;1.00
3626;DHT22;1827;50.534;8.316;2024-02-28T12:38:41;8.40;1.00
3626;DHT22;1827;50.534;8.316;2024-02-28T12:41:08;8.40;1.00
3626;DHT22;1827;50.534;8.316;2024-02-28T12:43:33;8.10;1.00
3626;DHT22;1827;50.534;8.316;2024-02-28T12:46:00;8.30;1.00
3626;DHT22;1827;50.534;8.316;2024-02-28T12:48:25;9.00;1.00
3626;DHT22;1827;50.534;8.316;2024-02-28T12:50:51;9.30;1.00
3626;DHT22;1827;50.534;8.316;2024-02-28T12:53:17;8.70;1.00
3626;DHT22;1827;50.534;8.316;2024-02-28T12:55:43;8.60;1.00
3626;DHT22;1827;50.534;8.316;2024-02-28T12:58:10;8.60;1.00
3626;DHT22;1827;50.534;8.316;2024-02-28T13:00:36;8.30;1.00
3626;DHT22;1827;50.534;8.316;2024-02-28T13:03:02;8.60;1.00
3626;DHT22;1827;50.534;8.316;2024-02-28T13:05:29;8.70;1.00
3626;DHT22;1827;50.534;8.316;2024-02-28T13:07:55;8.50;1.00
3626;DHT22;1827;50.534;8.316;2024-02-28T13:10:21;8.40;1.00
3626;DHT22;1827;50.534;8.316;2024-02-28T13:12:47;8.50;1.00
3626;DHT22;1827;50.534;8.316;2024-02-28T13:15:13;8.60;1.00
3626;DHT22;1827;50.534;8.316;2024-02-28T13:17:39;8.40;1.00
3626;DHT22;1827;50.534;8.316;2024-02-28T13:20:07;8.40;1.00
3626;DHT22;1827;50.534;8.316;2024-02-28T13:22:33;8.40;1.00
3626;DHT22;1827;50.534;8.316;2024-02-28T13:25:00;8.30;1.00
3626;DHT22;1827;50.534;8.316;2024-02-28T13:27:26;8.20;1.00
3626;DHT22;1827;50.534;8.316;2024-02-28T13:29:52;8.20;1.00
3626;DHT22;1827;50.534;8.316;2024-02-28T13:32:18;8.00;1.00
3626;DHT22;1827;50.534;8.316;2024-02-28T13:34:43;8.00;1.00
3626;DHT22;1827;50.534;8.316;2024-02-28T13:37:09;8.30;1.00
3626;DHT22;1827;50.534;8.316;2024-02-28T13:39:35;8.50;1.00
3626;DHT22;1827;50.534;8.316;2024-02-28T13:42:01;8.60;1.00
3626;DHT22;1827;50.534;8.316;2024-02-28T13:44:29;8.70;1.00
3626;DHT22;1827;50.534;8.316;2024-02-28T13:46:55;8.60;1.00
3626;DHT22;1827;50.534;8.316;2024-02-28T13:49:21;8.60;1.00
3626;DHT22;1827;50.534;8.316;2024-02-28T13:51:46;8.40;1.00
3626;DHT22;1827;50.534;8.316;2024-02-28T13:54:15;8.50;1.00
3626;DHT22;1827;50.534;8.316;2024-02-28T13:56:41;8.50;1.00
3626;DHT22;1827;50.534;8.316;2024-02-28T13:59:06;8.40;1.00
3626;DHT22;1827;50.534;8.316;2024-02-28T14:01:32;8.60;1.00
3626;DHT22;1827;50.534;8.316;2024-02-28T14:03:58;8.60;1.00
3626;DHT22;1827;50.534;8.316;2024-02-28T14:06:25;8.80;1.00
3626;DHT22;1827;50.534;8.316;2024-02-28T14:08:51;9.00;1.00
3626;DHT22;1827;50.534;8.316;2024-02-28T14:11:19;8.90;1.00
3626;DHT22;1827;50.534;8.316;2024-02-28T14:13:45;9.00;1.00
3626;DHT22;1827;50.534;8.316;2024-02-28T14:16:11;8.90;1.00
3626;DHT22;1827;50.534;8.316;2024-02-28T14:18:37;9.10;1.00
3626;DHT22;1827;50.534;8.316;2024-02-28T14:21:04;9.20;1.00
3626;DHT22;1827;50.534;8.316;2024-02-28T14:23:30;9.40;1.00
3626;DHT22;1827;50.534;8.316;2024-02-28T14:25:56;9.50;1.00
3626;DHT22;1827;50.534;8.316;2024-02-28T14:28:22;9.40;1.00
3626;DHT22;1827;50.534;8.316;2024-02-28T14:30:48;9.40;1.00
3626;DHT22;1827;50.534;8.316;2024-02-28T14:33:15;9.50;1.00
3626;DHT22;1827;50.534;8.316;2024-02-28T14:35:41;9.50;1.00
3626;DHT22;1827;50.534;8.316;2024-02-28T14:38:07;9.30;1.00
3626;DHT22;1827;50.534;8.316;2024-02-28T14:40:33;9.50;1.00
3626;DHT22;1827;50.534;8.316;2024-02-28T14:42:59;9.30;1.00
3626;DHT22;1827;50.534;8.316;2024-02-28T14:45:24;9.30;1.00
3626;DHT22;1827;50.534;8.316;2024-02-28T14:47:53;9.20;1.00
3626;DHT22;1827;50.534;8.316;2024-02-28T14:50:19;9.30;1.00
3626;DHT22;1827;50.534;8.316;2024-02-28T14:52:46;9.40;1.00
3626;DHT22;1827;50.534;8.316;2024-02-28T14:55:11;9.40;1.00
3626;DHT22;1827;50.534;8.316;2024-02-28T14:57:38;9.30;1.00
3626;DHT22;1827;50.534;8.316;2024-02-28T15:00:06;9.20;1.00
3626;DHT22;1827;50.534;8.316;2024-02-28T15:02:34;9.20;1.00
3626;DHT22;1827;50.534;8.316;2024-02-28T15:05:01;9.30;1.00
3626;DHT22;1827;50.534;8.316;2024-02-28T15:07:30;9.30;1.00
3626;DHT22;1827;50.534;8.316;2024-02-28T15:09:56;9.40;1.00
3626;DHT22;1827;50.534;8.316;2024-02-28T15:12:26;9.30;1.00
3626;DHT22;1827;50.534;8.316;2024-02-28T15:14:52;9.30;1.00
3626;DHT22;1827;50.534;8.316;2024-02-28T15:17:20;9.40;1.00
3626;DHT22;1827;50.534;8.316;2024-02-28T15:19:45;9.50;1.00
3626;DHT22;1827;50.534;8.316;2024-02-28T15:22:11;9.40;1.00
3626;DHT22;1827;50.534;8.316;2024-02-28T15:24:37;9.30;1.00
3626;DHT22;1827;50.534;8.316;2024-02-28T15:27:05;9.30;1.00
3626;DHT22;1827;50.534;8.316;2024-02-28T15:29:32;9.30;1.00
3626;DHT22;1827;50.534;8.316;2024-02-28T15:31:59;9.30;1.00
3626;DHT22;1827;50.534;8.316;2024-02-28T15:34:25;9.20;1.00
3626;DHT22;1827;50.534;8.316;2024-02-28T15:36:50;9.10;1.00
3626;DHT22;1827;50.534;8.316;2024-02-28T15:39:16;9.00;1.00
3626;DHT22;1827;50.534;8.316;2024-02-28T15:41:42;9.00;1.00
3626;DHT22;1827;50.534;8.316;2024-02-28T15:44:08;9.00;1.00
3626;DHT22;1827;50.534;8.316;2024-02-28T15:46:34;9.00;1.00
3626;DHT22;1827;50.534;8.316;2024-02-28T15:49:01;8.90;1.00
3626;DHT22;1827;50.534;8.316;2024-02-28T15:51:28;8.90;1.00
3626;DHT22;1827;50.534;8.316;2024-02-28T15:53:54;8.90;1.00
3626;DHT22;1827;50.534;8.316;2024-02-28T15:56:20;8.80;1.00
3626;DHT22;1827;50.534;8.316;2024-02-28T15:58:47;8.80;1.00
3626;DHT22;1827;50.534;8.316;2024-02-28T16:01:12;8.80;1.00
3626;DHT22;1827;50.534;8.316;2024-02-28T16:03:38;8.60;1.00
3626;DHT22;1827;50.534;8.316;2024-02-28T16:06:06;8.60;1.00
3626;DHT22;1827;50.534;8.316;2024-02-28T16:08:33;8.50;1.00
3626;DHT22;1827;50.534;8.316;2024-02-28T16:10:59;8.40;1.00
3626;DHT22;1827;50.534;8.316;2024-02-28T16:13:25;8.50;1.00
3626;DHT22;1827;50.534;8.316;2024-02-28T16:15:51;8.40;1.00
3626;DHT22;1827;50.534;8.316;2024-02-28T16:18:17;8.30;1.00